sensor_id;sensor_type;location;lat;lon;timestamp;pressure;altitude;pressure_sealevel;temperature;humidity
66524;BME280;53350;52.210;5.160;2023-01-28T00:02:20;103076.06;;;5.52;66.61
66524;BME280;53350;52.210;5.160;2023-01-28T00:04:46;103082.84;;;5.51;66.41
66524;BME280;53350;52.210;5.160;2023-01-28T00:07:12;103090.59;;;5.53;66.16
66524;BME280;53350;52.210;5.160;2023-01-28T00:09:38;103099.16;;;5.53;66.62
66524;BME280;53350;52.210;5.160;2023-01-28T00:12:05;103093.13;;;5.53;66.55
66524;BME280;53350;52.210;5.160;2023-01-28T00:14:31;103093.34;;;5.57;66.33
66524;BME280;53350;52.210;5.160;2023-01-28T00:16:59;103093.28;;;5.56;66.34
66524;BME280;53350;52.210;5.160;2023-01-28T00:19:25;103088.91;;;5.53;66.21
66524;BME280;53350;52.210;5.160;2023-01-28T00:21:52;103086.28;;;5.52;66.11
66524;BME280;53350;52.210;5.160;2023-01-28T00:24:18;103084.47;;;5.49;66.38
66524;BME280;53350;52.210;5.160;2023-01-28T00:26:44;103082.91;;;5.53;66.18
66524;BME280;53350;52.210;5.160;2023-01-28T00:29:10;103086.19;;;5.50;66.40
66524;BME280;53350;52.210;5.160;2023-01-28T00:31:37;103088.69;;;5.49;65.74
66524;BME280;53350;52.210;5.160;2023-01-28T00:34:07;103081.53;;;5.42;66.17
66524;BME280;53350;52.210;5.160;2023-01-28T00:36:34;103078.78;;;5.37;65.78
66524;BME280;53350;52.210;5.160;2023-01-28T00:39:03;103085.59;;;5.36;66.05
66524;BME280;53350;52.210;5.160;2023-01-28T00:41:30;103076.03;;;5.32;66.00
66524;BME280;53350;52.210;5.160;2023-01-28T00:43:56;103086.47;;;5.37;66.17
66524;BME280;53350;52.210;5.160;2023-01-28T00:46:23;103087.19;;;5.34;66.16
66524;BME280;53350;52.210;5.160;2023-01-28T00:48:50;103093.78;;;5.29;66.15
66524;BME280;53350;52.210;5.160;2023-01-28T00:51:18;103092.84;;;5.27;66.17
66524;BME280;53350;52.210;5.160;2023-01-28T00:53:45;103087.88;;;5.30;66.03
66524;BME280;53350;52.210;5.160;2023-01-28T00:56:12;103081.88;;;5.30;66.07
66524;BME280;53350;52.210;5.160;2023-01-28T00:58:39;103082.00;;;5.33;66.20
66524;BME280;53350;52.210;5.160;2023-01-28T01:01:07;103082.84;;;5.32;65.95
66524;BME280;53350;52.210;5.160;2023-01-28T01:03:34;103076.97;;;5.34;65.99
66524;BME280;53350;52.210;5.160;2023-01-28T01:06:00;103081.34;;;5.37;65.59
66524;BME280;53350;52.210;5.160;2023-01-28T01:08:28;103080.47;;;5.36;65.63
66524;BME280;53350;52.210;5.160;2023-01-28T01:10:59;103079.31;;;5.30;65.36
66524;BME280;53350;52.210;5.160;2023-01-28T01:13:25;103071.25;;;5.20;65.14
66524;BME280;53350;52.210;5.160;2023-01-28T01:15:59;103081.53;;;5.22;65.34
66524;BME280;53350;52.210;5.160;2023-01-28T01:18:26;103079.91;;;5.24;65.74
66524;BME280;53350;52.210;5.160;2023-01-28T01:20:52;103082.69;;;5.29;65.30
66524;BME280;53350;52.210;5.160;2023-01-28T01:23:22;103079.44;;;5.33;65.43
66524;BME280;53350;52.210;5.160;2023-01-28T01:25:50;103081.13;;;5.32;65.12
66524;BME280;53350;52.210;5.160;2023-01-28T01:28:17;103094.38;;;5.23;64.84
66524;BME280;53350;52.210;5.160;2023-01-28T01:30:44;103086.56;;;5.20;64.83
66524;BME280;53350;52.210;5.160;2023-01-28T01:33:10;103084.94;;;5.22;64.92
66524;BME280;53350;52.210;5.160;2023-01-28T01:35:37;103090.28;;;5.27;65.07
66524;BME280;53350;52.210;5.160;2023-01-28T01:38:03;103082.75;;;5.30;65.06
66524;BME280;53350;52.210;5.160;2023-01-28T01:40:29;103083.63;;;5.31;64.89
66524;BME280;53350;52.210;5.160;2023-01-28T01:42:57;103092.69;;;5.24;64.45
66524;BME280;53350;52.210;5.160;2023-01-28T01:45:23;103091.75;;;5.22;64.75
66524;BME280;53350;52.210;5.160;2023-01-28T01:47:52;103101.09;;;5.21;64.49
66524;BME280;53350;52.210;5.160;2023-01-28T01:50:23;103108.00;;;5.24;64.76
66524;BME280;53350;52.210;5.160;2023-01-28T01:52:51;103100.50;;;5.27;64.43
66524;BME280;53350;52.210;5.160;2023-01-28T01:55:20;103095.75;;;5.17;64.29
66524;BME280;53350;52.210;5.160;2023-01-28T01:57:49;103098.56;;;5.21;63.99
66524;BME280;53350;52.210;5.160;2023-01-28T02:00:18;103095.81;;;5.18;64.13
66524;BME280;53350;52.210;5.160;2023-01-28T02:02:45;103100.13;;;5.19;64.00
66524;BME280;53350;52.210;5.160;2023-01-28T02:05:13;103092.47;;;5.19;63.74
66524;BME280;53350;52.210;5.160;2023-01-28T02:07:39;103093.38;;;5.20;63.53
66524;BME280;53350;52.210;5.160;2023-01-28T02:10:07;103094.16;;;5.19;63.34
66524;BME280;53350;52.210;5.160;2023-01-28T02:12:33;103090.88;;;5.21;62.95
66524;BME280;53350;52.210;5.160;2023-01-28T02:15:02;103096.06;;;5.23;62.89
66524;BME280;53350;52.210;5.160;2023-01-28T02:17:30;103097.59;;;5.19;63.51
66524;BME280;53350;52.210;5.160;2023-01-28T02:19:57;103095.69;;;5.15;63.97
66524;BME280;53350;52.210;5.160;2023-01-28T02:22:28;103098.91;;;5.11;63.72
66524;BME280;53350;52.210;5.160;2023-01-28T02:28:00;103107.59;;;5.15;64.10
66524;BME280;53350;52.210;5.160;2023-01-28T02:30:32;103111.78;;;5.13;63.80
66524;BME280;53350;52.210;5.160;2023-01-28T02:33:01;103117.16;;;5.19;63.51
66524;BME280;53350;52.210;5.160;2023-01-28T02:35:33;103116.38;;;5.20;63.41
66524;BME280;53350;52.210;5.160;2023-01-28T02:38:03;103110.34;;;5.19;63.02
66524;BME280;53350;52.210;5.160;2023-01-28T02:40:30;103108.78;;;5.21;63.14
66524;BME280;53350;52.210;5.160;2023-01-28T02:43:29;103109.63;;;5.22;63.21
66524;BME280;53350;52.210;5.160;2023-01-28T02:45:55;103110.56;;;5.24;63.73
66524;BME280;53350;52.210;5.160;2023-01-28T02:48:39;103107.28;;;5.27;63.58
66524;BME280;53350;52.210;5.160;2023-01-28T02:51:07;103104.88;;;5.30;63.35
66524;BME280;53350;52.210;5.160;2023-01-28T02:53:36;103102.25;;;5.28;63.31
66524;BME280;53350;52.210;5.160;2023-01-28T02:56:06;103102.63;;;5.18;62.96
66524;BME280;53350;52.210;5.160;2023-01-28T02:58:39;103107.75;;;5.18;63.49
66524;BME280;53350;52.210;5.160;2023-01-28T03:01:09;103100.06;;;5.18;63.41
66524;BME280;53350;52.210;5.160;2023-01-28T03:03:41;103101.63;;;5.14;63.13
66524;BME280;53350;52.210;5.160;2023-01-28T03:06:10;103096.59;;;5.16;63.10
66524;BME280;53350;52.210;5.160;2023-01-28T03:08:38;103104.25;;;5.16;63.14
66524;BME280;53350;52.210;5.160;2023-01-28T03:11:22;103094.88;;;5.16;63.55
66524;BME280;53350;52.210;5.160;2023-01-28T03:14:08;103096.50;;;5.14;63.36
66524;BME280;53350;52.210;5.160;2023-01-28T03:16:53;103093.97;;;5.14;63.14
66524;BME280;53350;52.210;5.160;2023-01-28T03:19:39;103090.44;;;5.12;63.17
66524;BME280;53350;52.210;5.160;2023-01-28T03:22:23;103102.56;;;5.16;62.79
66524;BME280;53350;52.210;5.160;2023-01-28T03:25:08;103101.63;;;5.14;62.68
66524;BME280;53350;52.210;5.160;2023-01-28T03:27:54;103100.88;;;5.17;63.09
66524;BME280;53350;52.210;5.160;2023-01-28T03:30:41;103105.84;;;5.14;63.62
66524;BME280;53350;52.210;5.160;2023-01-28T03:33:27;103098.91;;;5.11;63.11
66524;BME280;53350;52.210;5.160;2023-01-28T03:36:12;103094.88;;;5.16;63.32
66524;BME280;53350;52.210;5.160;2023-01-28T03:38:56;103095.03;;;5.19;63.40
66524;BME280;53350;52.210;5.160;2023-01-28T03:41:23;103095.09;;;5.21;63.01
66524;BME280;53350;52.210;5.160;2023-01-28T03:43:50;103095.09;;;5.21;63.59
66524;BME280;53350;52.210;5.160;2023-01-28T03:46:18;103099.22;;;5.17;63.30
66524;BME280;53350;52.210;5.160;2023-01-28T03:48:45;103099.22;;;5.17;63.44
66524;BME280;53350;52.210;5.160;2023-01-28T03:51:11;103110.44;;;5.21;63.69
66524;BME280;53350;52.210;5.160;2023-01-28T03:53:37;103100.34;;;5.24;63.70
66524;BME280;53350;52.210;5.160;2023-01-28T03:56:04;103106.16;;;5.20;63.32
66524;BME280;53350;52.210;5.160;2023-01-28T03:58:31;103108.78;;;5.21;63.32
66524;BME280;53350;52.210;5.160;2023-01-28T04:01:16;103109.56;;;5.20;62.98
66524;BME280;53350;52.210;5.160;2023-01-28T04:03:44;103106.88;;;5.17;63.08
66524;BME280;53350;52.210;5.160;2023-01-28T04:06:11;103111.16;;;5.18;63.15
66524;BME280;53350;52.210;5.160;2023-01-28T04:08:37;103114.75;;;5.22;63.30
66524;BME280;53350;52.210;5.160;2023-01-28T04:11:03;103125.03;;;5.23;63.29
66524;BME280;53350;52.210;5.160;2023-01-28T04:13:40;103122.72;;;5.10;63.23
66524;BME280;53350;52.210;5.160;2023-01-28T04:16:06;103119.06;;;5.05;63.40
66524;BME280;53350;52.210;5.160;2023-01-28T04:18:33;103131.09;;;5.08;63.27
66524;BME280;53350;52.210;5.160;2023-01-28T04:21:01;103132.03;;;5.10;63.07
66524;BME280;53350;52.210;5.160;2023-01-28T04:23:27;103122.66;;;5.09;63.24
66524;BME280;53350;52.210;5.160;2023-01-28T04:25:53;103131.91;;;5.07;63.23
66524;BME280;53350;52.210;5.160;2023-01-28T04:28:20;103135.09;;;5.02;62.95
66524;BME280;53350;52.210;5.160;2023-01-28T04:30:46;103127.63;;;5.05;63.04
66524;BME280;53350;52.210;5.160;2023-01-28T04:33:13;103131.91;;;5.07;62.90
66524;BME280;53350;52.210;5.160;2023-01-28T04:35:39;103131.09;;;5.08;63.09
66524;BME280;53350;52.210;5.160;2023-01-28T04:38:07;103128.47;;;5.06;62.66
66524;BME280;53350;52.210;5.160;2023-01-28T04:40:33;103125.78;;;5.03;62.73
66524;BME280;53350;52.210;5.160;2023-01-28T04:43:00;103121.47;;;5.02;62.97
66524;BME280;53350;52.210;5.160;2023-01-28T04:45:26;103125.00;;;5.04;62.84
66524;BME280;53350;52.210;5.160;2023-01-28T04:47:53;103116.28;;;5.00;62.94
66524;BME280;53350;52.210;5.160;2023-01-28T04:50:19;103117.00;;;4.98;63.30
66524;BME280;53350;52.210;5.160;2023-01-28T04:52:45;103111.09;;;4.99;63.08
66524;BME280;53350;52.210;5.160;2023-01-28T04:55:13;103122.44;;;5.04;63.53
66524;BME280;53350;52.210;5.160;2023-01-28T04:57:39;103124.31;;;5.08;63.50
66524;BME280;53350;52.210;5.160;2023-01-28T05:00:06;103121.09;;;5.12;62.97
66524;BME280;53350;52.210;5.160;2023-01-28T05:02:32;103120.97;;;5.09;63.02
66524;BME280;53350;52.210;5.160;2023-01-28T05:04:59;103116.63;;;5.08;63.17
66524;BME280;53350;52.210;5.160;2023-01-28T05:07:25;103116.72;;;5.10;63.17
66524;BME280;53350;52.210;5.160;2023-01-28T05:09:51;103120.38;;;5.15;62.71
66524;BME280;53350;52.210;5.160;2023-01-28T05:12:19;103119.72;;;5.19;63.08
66524;BME280;53350;52.210;5.160;2023-01-28T05:14:45;103127.44;;;5.20;63.04
66524;BME280;53350;52.210;5.160;2023-01-28T05:17:12;103124.63;;;5.14;62.56
66524;BME280;53350;52.210;5.160;2023-01-28T05:19:38;103120.22;;;5.12;62.29
66524;BME280;53350;52.210;5.160;2023-01-28T05:22:04;103123.56;;;5.11;62.93
66524;BME280;53350;52.210;5.160;2023-01-28T05:24:31;103122.66;;;5.09;62.09
66524;BME280;53350;52.210;5.160;2023-01-28T05:26:57;103118.25;;;5.06;61.94
66524;BME280;53350;52.210;5.160;2023-01-28T05:29:25;103120.66;;;5.03;62.22
66524;BME280;53350;52.210;5.160;2023-01-28T05:31:51;103123.81;;;4.97;61.96
66524;BME280;53350;52.210;5.160;2023-01-28T05:34:17;103122.41;;;4.86;62.31
66524;BME280;53350;52.210;5.160;2023-01-28T05:36:43;103118.03;;;4.83;62.82
66524;BME280;53350;52.210;5.160;2023-01-28T05:39:10;103113.66;;;4.81;62.65
66524;BME280;53350;52.210;5.160;2023-01-28T05:41:36;103107.88;;;4.85;63.09
66524;BME280;53350;52.210;5.160;2023-01-28T05:44:02;103116.28;;;4.82;62.57
66524;BME280;53350;52.210;5.160;2023-01-28T05:46:30;103113.34;;;4.75;62.78
66524;BME280;53350;52.210;5.160;2023-01-28T05:48:56;103118.53;;;4.76;62.65
66524;BME280;53350;52.210;5.160;2023-01-28T05:51:22;103119.28;;;4.74;62.59
66524;BME280;53350;52.210;5.160;2023-01-28T05:53:49;103125.25;;;4.74;62.56
66524;BME280;53350;52.210;5.160;2023-01-28T05:56:15;103124.13;;;4.69;62.75
66524;BME280;53350;52.210;5.160;2023-01-28T05:58:41;103132.63;;;4.68;62.55
66524;BME280;53350;52.210;5.160;2023-01-28T06:01:07;103122.56;;;4.71;62.69
66524;BME280;53350;52.210;5.160;2023-01-28T06:03:35;103125.31;;;4.76;62.69
66524;BME280;53350;52.210;5.160;2023-01-28T06:06:01;103128.09;;;4.80;62.56
66524;BME280;53350;52.210;5.160;2023-01-28T06:08:27;103123.78;;;4.79;62.44
66524;BME280;53350;52.210;5.160;2023-01-28T06:10:54;103128.09;;;4.80;62.74
66524;BME280;53350;52.210;5.160;2023-01-28T06:13:20;103130.66;;;4.80;62.57
66524;BME280;53350;52.210;5.160;2023-01-28T06:15:47;103120.94;;;4.73;62.81
66524;BME280;53350;52.210;5.160;2023-01-28T06:18:14;103116.63;;;4.72;62.92
66524;BME280;53350;52.210;5.160;2023-01-28T06:20:41;103124.28;;;4.72;63.01
66524;BME280;53350;52.210;5.160;2023-01-28T06:23:08;103129.50;;;4.74;63.27
66524;BME280;53350;52.210;5.160;2023-01-28T06:25:34;103126.84;;;4.72;62.92
66524;BME280;53350;52.210;5.160;2023-01-28T06:28:00;103127.59;;;4.69;63.11
66524;BME280;53350;52.210;5.160;2023-01-28T06:30:26;103125.03;;;4.69;62.90
66524;BME280;53350;52.210;5.160;2023-01-28T06:32:53;103131.94;;;4.72;63.33
66524;BME280;53350;52.210;5.160;2023-01-28T06:35:20;103132.19;;;4.77;62.77
66524;BME280;53350;52.210;5.160;2023-01-28T06:37:48;103137.59;;;4.83;63.04
66524;BME280;53350;52.210;5.160;2023-01-28T06:40:14;103138.44;;;4.83;62.86
66524;BME280;53350;52.210;5.160;2023-01-28T06:42:40;103140.22;;;4.84;62.55
66524;BME280;53350;52.210;5.160;2023-01-28T06:45:07;103151.16;;;4.82;63.30
66524;BME280;53350;52.210;5.160;2023-01-28T06:47:33;103148.53;;;4.80;62.52
66524;BME280;53350;52.210;5.160;2023-01-28T06:49:59;103150.84;;;4.76;63.31
66524;BME280;53350;52.210;5.160;2023-01-28T06:52:26;103155.81;;;4.73;62.89
66524;BME280;53350;52.210;5.160;2023-01-28T06:54:53;103154.69;;;4.67;62.87
66524;BME280;53350;52.210;5.160;2023-01-28T06:57:19;103158.78;;;4.64;63.20
66524;BME280;53350;52.210;5.160;2023-01-28T06:59:46;103144.91;;;4.59;63.56
66524;BME280;53350;52.210;5.160;2023-01-28T07:02:12;103142.13;;;4.54;63.25
66524;BME280;53350;52.210;5.160;2023-01-28T07:04:38;103141.50;;;4.58;63.21
66524;BME280;53350;52.210;5.160;2023-01-28T07:07:05;103142.56;;;4.63;63.35
66524;BME280;53350;52.210;5.160;2023-01-28T07:09:31;103142.84;;;4.68;63.14
66524;BME280;53350;52.210;5.160;2023-01-28T07:11:59;103147.25;;;4.72;63.17
66524;BME280;53350;52.210;5.160;2023-01-28T07:14:29;103162.97;;;4.80;63.27
66524;BME280;53350;52.210;5.160;2023-01-28T07:16:55;103157.88;;;4.80;62.77
66524;BME280;53350;52.210;5.160;2023-01-28T07:19:21;103150.34;;;4.83;62.72
66524;BME280;53350;52.210;5.160;2023-01-28T07:21:48;103155.47;;;4.83;62.46
66524;BME280;53350;52.210;5.160;2023-01-28T07:24:14;103152.75;;;4.80;62.66
66524;BME280;53350;52.210;5.160;2023-01-28T07:26:40;103162.09;;;4.79;62.45
66524;BME280;53350;52.210;5.160;2023-01-28T07:29:08;103168.00;;;4.78;62.46
66524;BME280;53350;52.210;5.160;2023-01-28T07:31:34;103172.47;;;4.82;62.29
66524;BME280;53350;52.210;5.160;2023-01-28T07:34:01;103162.41;;;4.85;62.20
66524;BME280;53350;52.210;5.160;2023-01-28T07:36:27;103161.59;;;4.86;62.32
66524;BME280;53350;52.210;5.160;2023-01-28T07:38:53;103158.31;;;4.89;61.58
66524;BME280;53350;52.210;5.160;2023-01-28T07:41:19;103172.91;;;4.92;61.82
66524;BME280;53350;52.210;5.160;2023-01-28T07:43:46;103166.94;;;4.91;61.91
66524;BME280;53350;52.210;5.160;2023-01-28T07:46:13;103173.69;;;4.91;62.06
66524;BME280;53350;52.210;5.160;2023-01-28T07:48:40;103169.56;;;4.93;61.96
66524;BME280;53350;52.210;5.160;2023-01-28T07:51:06;103182.47;;;4.96;62.33
66524;BME280;53350;52.210;5.160;2023-01-28T07:53:32;103173.34;;;5.01;61.87
66524;BME280;53350;52.210;5.160;2023-01-28T07:55:58;103177.81;;;5.05;62.20
66524;BME280;53350;52.210;5.160;2023-01-28T07:58:25;103177.22;;;5.11;62.10
66524;BME280;53350;52.210;5.160;2023-01-28T08:00:54;103174.81;;;5.14;61.89
66524;BME280;53350;52.210;5.160;2023-01-28T08:03:22;103177.38;;;5.14;61.90
66524;BME280;53350;52.210;5.160;2023-01-28T08:05:49;103178.19;;;5.13;61.95
66524;BME280;53350;52.210;5.160;2023-01-28T08:08:17;103173.22;;;5.16;61.88
66524;BME280;53350;52.210;5.160;2023-01-28T08:10:43;103176.06;;;5.22;61.95
66524;BME280;53350;52.210;5.160;2023-01-28T08:13:10;103177.91;;;5.25;61.75
66524;BME280;53350;52.210;5.160;2023-01-28T08:15:36;103183.16;;;5.28;61.87
66524;BME280;53350;52.210;5.160;2023-01-28T08:18:03;103188.53;;;5.34;61.77
66524;BME280;53350;52.210;5.160;2023-01-28T08:20:31;103189.50;;;5.36;61.73
66524;BME280;53350;52.210;5.160;2023-01-28T08:23:05;103187.88;;;5.38;61.67
66524;BME280;53350;52.210;5.160;2023-01-28T08:25:31;103197.47;;;5.42;61.64
66524;BME280;53350;52.210;5.160;2023-01-28T08:27:58;103199.44;;;5.48;61.50
66524;BME280;53350;52.210;5.160;2023-01-28T08:30:24;103185.88;;;5.50;61.78
66524;BME280;53350;52.210;5.160;2023-01-28T08:32:50;103185.22;;;5.54;61.38
66524;BME280;53350;52.210;5.160;2023-01-28T08:35:17;103193.56;;;5.50;60.65
66524;BME280;53350;52.210;5.160;2023-01-28T08:37:44;103200.22;;;5.47;61.18
66524;BME280;53350;52.210;5.160;2023-01-28T08:40:11;103206.19;;;5.47;61.41
66524;BME280;53350;52.210;5.160;2023-01-28T08:42:37;103217.47;;;5.51;61.25
66524;BME280;53350;52.210;5.160;2023-01-28T08:45:04;103204.03;;;5.55;61.51
66524;BME280;53350;52.210;5.160;2023-01-28T08:47:30;103202.41;;;5.57;60.93
66524;BME280;53350;52.210;5.160;2023-01-28T08:49:56;103200.81;;;5.59;61.44
66524;BME280;53350;52.210;5.160;2023-01-28T08:52:23;103203.50;;;5.62;60.87
66524;BME280;53350;52.210;5.160;2023-01-28T08:54:50;103203.66;;;5.65;61.09
66524;BME280;53350;52.210;5.160;2023-01-28T08:57:16;103202.91;;;5.68;60.48
66524;BME280;53350;52.210;5.160;2023-01-28T08:59:43;103208.09;;;5.69;60.62
66524;BME280;53350;52.210;5.160;2023-01-28T09:02:11;103212.63;;;5.75;61.46
66524;BME280;53350;52.210;5.160;2023-01-28T09:04:38;103217.94;;;5.80;60.96
66524;BME280;53350;52.210;5.160;2023-01-28T09:07:04;103213.81;;;5.83;61.17
66524;BME280;53350;52.210;5.160;2023-01-28T09:09:30;103217.50;;;5.88;60.59
66524;BME280;53350;52.210;5.160;2023-01-28T09:11:58;103222.66;;;5.90;59.90
66524;BME280;53350;52.210;5.160;2023-01-28T09:14:24;103222.66;;;5.90;59.92
66524;BME280;53350;52.210;5.160;2023-01-28T09:16:50;103224.44;;;5.91;60.21
66524;BME280;53350;52.210;5.160;2023-01-28T09:19:16;103236.31;;;5.90;59.42
66524;BME280;53350;52.210;5.160;2023-01-28T09:21:43;103235.53;;;5.91;59.39
66524;BME280;53350;52.210;5.160;2023-01-28T09:24:09;103243.19;;;5.91;58.89
66524;BME280;53350;52.210;5.160;2023-01-28T09:26:36;103249.19;;;5.92;59.35
66524;BME280;53350;52.210;5.160;2023-01-28T09:29:03;103244.13;;;5.93;59.18
66524;BME280;53350;52.210;5.160;2023-01-28T09:31:30;103233.09;;;5.95;59.97
66524;BME280;53350;52.210;5.160;2023-01-28T09:33:56;103234.97;;;5.97;58.98
66524;BME280;53350;52.210;5.160;2023-01-28T09:36:22;103239.28;;;5.98;59.54
66524;BME280;53350;52.210;5.160;2023-01-28T09:38:48;103247.91;;;6.00;59.70
66524;BME280;53350;52.210;5.160;2023-01-28T09:41:22;103248.09;;;6.05;59.49
66524;BME280;53350;52.210;5.160;2023-01-28T09:43:53;103235.38;;;6.06;59.39
66524;BME280;53350;52.210;5.160;2023-01-28T09:46:25;103229.59;;;6.11;59.09
66524;BME280;53350;52.210;5.160;2023-01-28T09:48:53;103238.22;;;6.13;58.44
66524;BME280;53350;52.210;5.160;2023-01-28T09:51:25;103247.56;;;6.12;58.76
66524;BME280;53350;52.210;5.160;2023-01-28T09:53:53;103254.59;;;6.16;58.88
66524;BME280;53350;52.210;5.160;2023-01-28T09:56:21;103250.41;;;6.18;58.56
66524;BME280;53350;52.210;5.160;2023-01-28T09:58:50;103255.69;;;6.21;59.18
66524;BME280;53350;52.210;5.160;2023-01-28T10:01:21;103265.03;;;6.21;58.33
66524;BME280;53350;52.210;5.160;2023-01-28T10:03:54;103257.41;;;6.22;58.64
66524;BME280;53350;52.210;5.160;2023-01-28T10:06:28;103261.59;;;6.20;58.32
66524;BME280;53350;52.210;5.160;2023-01-28T10:09:07;103261.59;;;6.20;58.66
66524;BME280;53350;52.210;5.160;2023-01-28T10:11:41;103262.53;;;6.22;57.93
66524;BME280;53350;52.210;5.160;2023-01-28T10:14:12;103255.75;;;6.23;58.24
66524;BME280;53350;52.210;5.160;2023-01-28T10:16:43;103258.44;;;6.26;57.90
66524;BME280;53350;52.210;5.160;2023-01-28T10:19:17;103239.69;;;6.27;58.19
66524;BME280;53350;52.210;5.160;2023-01-28T10:21:46;103246.63;;;6.30;57.03
66524;BME280;53350;52.210;5.160;2023-01-28T10:24:16;103237.91;;;6.24;56.87
66524;BME280;53350;52.210;5.160;2023-01-28T10:26:43;103238.75;;;6.25;56.77
66524;BME280;53350;52.210;5.160;2023-01-28T10:29:11;103244.75;;;6.25;56.72
66524;BME280;53350;52.210;5.160;2023-01-28T10:31:39;103241.44;;;6.28;57.81
66524;BME280;53350;52.210;5.160;2023-01-28T10:34:07;103227.66;;;6.24;57.31
66524;BME280;53350;52.210;5.160;2023-01-28T10:36:35;103239.16;;;6.34;58.03
66524;BME280;53350;52.210;5.160;2023-01-28T10:39:02;103242.53;;;6.33;57.25
66524;BME280;53350;52.210;5.160;2023-01-28T10:41:28;103242.53;;;6.33;57.55
66524;BME280;53350;52.210;5.160;2023-01-28T10:43:55;103234.88;;;6.33;57.68
66524;BME280;53350;52.210;5.160;2023-01-28T10:46:22;103240.25;;;6.39;56.80
66524;BME280;53350;52.210;5.160;2023-01-28T10:48:53;103233.50;;;6.41;57.50
66524;BME280;53350;52.210;5.160;2023-01-28T10:51:28;103218.19;;;6.43;57.82
66524;BME280;53350;52.210;5.160;2023-01-28T10:53:56;103214.97;;;6.47;56.93
66524;BME280;53350;52.210;5.160;2023-01-28T10:56:23;103200.50;;;6.48;56.94
66524;BME280;53350;52.210;5.160;2023-01-28T10:58:53;103192.06;;;6.50;57.30
66524;BME280;53350;52.210;5.160;2023-01-28T11:01:22;103187.88;;;6.52;57.92
66524;BME280;53350;52.210;5.160;2023-01-28T11:03:52;103187.88;;;6.52;57.33
66524;BME280;53350;52.210;5.160;2023-01-28T11:06:22;103182.91;;;6.55;57.11
66524;BME280;53350;52.210;5.160;2023-01-28T11:08:49;103163.63;;;6.64;57.50
66524;BME280;53350;52.210;5.160;2023-01-28T11:11:22;103157.09;;;6.72;56.96
66524;BME280;53350;52.210;5.160;2023-01-28T11:13:49;103150.63;;;6.80;57.94
66524;BME280;53350;52.210;5.160;2023-01-28T11:16:17;103150.16;;;6.90;56.89
66524;BME280;53350;52.210;5.160;2023-01-28T11:18:45;103155.41;;;6.93;56.81
66524;BME280;53350;52.210;5.160;2023-01-28T11:21:14;103142.03;;;7.01;56.52
66524;BME280;53350;52.210;5.160;2023-01-28T11:23:46;103137.53;;;6.95;55.65
66524;BME280;53350;52.210;5.160;2023-01-28T11:26:14;103133.47;;;7.00;56.34
66524;BME280;53350;52.210;5.160;2023-01-28T11:28:43;103114.91;;;7.06;56.37
66524;BME280;53350;52.210;5.160;2023-01-28T11:31:11;103114.16;;;7.08;56.52
66524;BME280;53350;52.210;5.160;2023-01-28T11:33:42;103108.97;;;7.07;56.70
66524;BME280;53350;52.210;5.160;2023-01-28T11:36:12;103120.84;;;7.05;56.25
66524;BME280;53350;52.210;5.160;2023-01-28T11:38:46;103118.97;;;7.01;55.95
66524;BME280;53350;52.210;5.160;2023-01-28T11:41:12;103119.81;;;7.00;55.71
66524;BME280;53350;52.210;5.160;2023-01-28T11:43:39;103113.91;;;7.02;55.64
66524;BME280;53350;52.210;5.160;2023-01-28T11:46:11;103120.91;;;7.06;56.21
66524;BME280;53350;52.210;5.160;2023-01-28T11:48:44;103129.66;;;7.11;56.27
66524;BME280;53350;52.210;5.160;2023-01-28T11:51:17;103136.66;;;7.16;55.96
66524;BME280;53350;52.210;5.160;2023-01-28T11:53:50;103141.97;;;7.20;56.66
66524;BME280;53350;52.210;5.160;2023-01-28T11:56:21;103133.38;;;7.20;55.96
66524;BME280;53350;52.210;5.160;2023-01-28T11:58:54;103137.75;;;7.22;55.80
66524;BME280;53350;52.210;5.160;2023-01-28T12:01:26;103135.13;;;7.21;56.29
66524;BME280;53350;52.210;5.160;2023-01-28T12:06:46;103145.09;;;7.13;55.87
66524;BME280;53350;52.210;5.160;2023-01-28T12:09:17;103145.16;;;7.14;56.33
66524;BME280;53350;52.210;5.160;2023-01-28T12:11:49;103146.97;;;7.17;56.40
66524;BME280;53350;52.210;5.160;2023-01-28T12:14:46;103152.91;;;7.16;56.37
66524;BME280;53350;52.210;5.160;2023-01-28T12:17:18;103144.28;;;7.14;56.35
66524;BME280;53350;52.210;5.160;2023-01-28T12:19:52;103155.41;;;7.14;56.09
66524;BME280;53350;52.210;5.160;2023-01-28T12:25:16;103145.38;;;7.21;56.16
66524;BME280;53350;52.210;5.160;2023-01-28T12:27:46;103145.75;;;7.30;55.96
66524;BME280;53350;52.210;5.160;2023-01-28T12:30:19;103142.31;;;7.29;56.64
66524;BME280;53350;52.210;5.160;2023-01-28T12:32:52;103139.78;;;7.31;56.09
66524;BME280;53350;52.210;5.160;2023-01-28T12:35:27;103128.69;;;7.30;55.84
66524;BME280;53350;52.210;5.160;2023-01-28T12:38:01;103126.16;;;7.32;56.67
66524;BME280;53350;52.210;5.160;2023-01-28T12:40:38;103115.22;;;7.36;55.69
66524;BME280;53350;52.210;5.160;2023-01-28T12:43:09;103106.84;;;7.40;55.40
66524;BME280;53350;52.210;5.160;2023-01-28T12:45:37;103103.56;;;7.44;55.32
66524;BME280;53350;52.210;5.160;2023-01-28T12:48:08;103094.13;;;7.43;55.44
66524;BME280;53350;52.210;5.160;2023-01-28T12:50:37;103090.81;;;7.46;55.25
66524;BME280;53350;52.210;5.160;2023-01-28T12:53:09;103078.97;;;7.49;55.99
66524;BME280;53350;52.210;5.160;2023-01-28T12:55:42;103073.28;;;7.58;55.77
66524;BME280;53350;52.210;5.160;2023-01-28T12:58:11;103072.63;;;7.64;56.11
66524;BME280;53350;52.210;5.160;2023-01-28T13:00:41;103064.06;;;7.63;55.48
66524;BME280;53350;52.210;5.160;2023-01-28T13:03:13;103066.59;;;7.62;55.71
66524;BME280;53350;52.210;5.160;2023-01-28T13:05:43;103065.69;;;7.61;55.56
66524;BME280;53350;52.210;5.160;2023-01-28T13:08:12;103076.13;;;7.66;55.94
66524;BME280;53350;52.210;5.160;2023-01-28T13:10:40;103077.00;;;7.66;55.61
66524;BME280;53350;52.210;5.160;2023-01-28T13:13:09;103070.22;;;7.69;55.38
66524;BME280;53350;52.210;5.160;2023-01-28T13:15:40;103057.47;;;7.70;55.51
66524;BME280;53350;52.210;5.160;2023-01-28T13:20:50;103060.31;;;7.78;55.39